Time;durP1;ratioP1;P1;durP2;ratioP2;P2;SDS_P1;SDS_P2;PMS_P1;PMS_P2;Temp;Humidity;BMP_temperature;BMP_pressure;BME280_temperature;BME280_humidity;BME280_pressure;Samples;Min_cycle;Max_cycle;Signal;HPM_P1;HPM_P2
2023/05/18 00:02:02;;;;;;;3.67;2.22;;;8.20;99.90;;;;;;5067083;28;20048;-76
2023/05/18 00:04:30;;;;;;;8.20;2.80;;;8.20;99.90;;;;;;5087517;28;20078;-76
2023/05/18 00:06:55;;;;;;;6.95;2.55;;;8.20;99.90;;;;;;5087318;28;20518;-76
2023/05/18 00:09:25;;;;;;;7.57;2.60;;;8.30;99.90;;;;;;5087261;28;20090;-76
2023/05/18 00:11:53;;;;;;;6.43;2.15;;;8.20;99.90;;;;;;5088376;28;20483;-76
2023/05/18 00:14:19;;;;;;;5.97;2.42;;;8.30;99.90;;;;;;5088544;28;20047;-76
2023/05/18 00:16:46;;;;;;;5.25;2.45;;;8.30;99.90;;;;;;5086142;28;20044;-76
2023/05/18 00:19:13;;;;;;;5.03;3.03;;;8.30;99.90;;;;;;5087482;28;20044;-76
2023/05/18 00:21:43;;;;;;;9.95;3.00;;;8.20;99.90;;;;;;5068980;28;20572;-76
2023/05/18 00:24:12;;;;;;;5.32;2.53;;;8.20;99.90;;;;;;5068888;28;20122;-76
2023/05/18 00:26:38;;;;;;;8.52;3.20;;;8.20;99.90;;;;;;5069049;28;20040;-76
2023/05/18 00:29:05;;;;;;;9.65;3.25;;;8.10;99.90;;;;;;5068520;28;20048;-76
2023/05/18 00:31:35;;;;;;;7.40;2.70;;;8.10;99.90;;;;;;5067380;28;20044;-76
2023/05/18 00:34:08;;;;;;;6.10;3.22;;;8.10;99.90;;;;;;5085177;28;20047;-76
2023/05/18 00:36:35;;;;;;;6.25;2.70;;;8.10;99.90;;;;;;5068166;28;20040;-76
2023/05/18 00:39:00;;;;;;;5.72;2.85;;;8.10;99.90;;;;;;5084235;28;20452;-76
2023/05/18 00:41:26;;;;;;;4.43;2.50;;;8.10;99.90;;;;;;5070152;28;20039;-76
2023/05/18 00:43:53;;;;;;;6.32;3.25;;;8.10;99.90;;;;;;5086311;28;20484;-76
2023/05/18 00:46:19;;;;;;;9.27;3.13;;;8.20;99.90;;;;;;5085643;28;20626;-76
2023/05/18 00:48:45;;;;;;;4.95;2.90;;;8.10;99.90;;;;;;5080736;28;20044;-76
2023/05/18 00:51:11;;;;;;;8.50;2.72;;;8.20;99.90;;;;;;5049701;28;20075;-76
2023/05/18 00:53:37;;;;;;;13.80;3.25;;;8.20;99.90;;;;;;5083978;28;20062;-76
2023/05/18 00:56:03;;;;;;;10.95;3.60;;;8.20;99.90;;;;;;5068145;28;20051;-76
2023/05/18 00:58:30;;;;;;;6.43;3.10;;;8.20;99.90;;;;;;5068112;28;20055;-76
2023/05/18 01:00:56;;;;;;;6.53;2.72;;;8.10;99.90;;;;;;5084647;28;20043;-76
2023/05/18 01:03:21;;;;;;;11.05;3.85;;;8.10;99.90;;;;;;5088627;28;20054;-76
2023/05/18 01:05:54;;;;;;;9.70;3.85;;;8.10;99.90;;;;;;5093776;28;20040;-76
2023/05/18 01:08:25;;;;;;;4.85;3.25;;;8.10;99.90;;;;;;5085857;28;20059;-76
2023/05/18 01:11:13;;;;;;;6.53;3.15;;;8.10;99.90;;;;;;5092219;28;20051;-76
2023/05/18 01:14:10;;;;;;;7.72;3.28;;;8.10;99.90;;;;;;5075055;28;20512;-76
2023/05/18 01:16:52;;;;;;;8.40;3.45;;;8.00;99.90;;;;;;5075009;28;20201;-76
2023/05/18 01:19:56;;;;;;;11.73;3.53;;;8.00;99.90;;;;;;5055182;28;20110;-76
2023/05/18 01:22:32;;;;;;;6.25;2.80;;;8.00;99.90;;;;;;5040297;28;20042;-76
2023/05/18 01:25:03;;;;;;;5.85;2.80;;;8.00;99.90;;;;;;5055539;28;20052;-76
2023/05/18 01:27:36;;;;;;;6.00;2.50;;;8.00;99.90;;;;;;5089636;28;20048;-76
2023/05/18 01:30:04;;;;;;;6.93;2.95;;;8.00;99.90;;;;;;5094540;28;20093;-76
2023/05/18 01:32:39;;;;;;;5.22;2.85;;;8.00;99.90;;;;;;5074884;28;20043;-76
2023/05/18 01:35:05;;;;;;;3.55;2.85;;;8.00;99.90;;;;;;5093499;28;20118;-76
2023/05/18 01:37:30;;;;;;;6.28;3.15;;;7.90;99.90;;;;;;5072464;28;20532;-76
2023/05/18 01:39:56;;;;;;;5.18;3.22;;;7.90;99.90;;;;;;5092693;28;20097;-76
2023/05/18 01:42:26;;;;;;;6.57;3.20;;;7.90;99.90;;;;;;5093149;28;20044;-76
2023/05/18 01:45:01;;;;;;;9.20;3.05;;;7.90;99.90;;;;;;5092978;28;20048;-76
2023/05/18 01:47:29;;;;;;;6.47;3.05;;;7.90;99.90;;;;;;5092175;28;20051;-76
2023/05/18 01:50:15;;;;;;;8.52;3.60;;;7.90;99.90;;;;;;5092724;28;20058;-76
2023/05/18 01:52:47;;;;;;;5.80;3.03;;;7.90;99.90;;;;;;5084564;28;20048;-76
2023/05/18 01:55:16;;;;;;;5.47;3.07;;;7.90;99.90;;;;;;5075442;28;20048;-76
2023/05/18 01:57:44;;;;;;;6.25;3.00;;;7.90;99.90;;;;;;5072918;28;20062;-76
2023/05/18 02:00:11;;;;;;;6.13;3.08;;;7.90;99.90;;;;;;5077028;28;20572;-76
2023/05/18 02:02:36;;;;;;;6.97;2.65;;;7.90;99.90;;;;;;5091189;28;20439;-76
2023/05/18 02:05:04;;;;;;;5.50;3.20;;;7.90;99.90;;;;;;5085908;28;20048;-76
2023/05/18 02:07:29;;;;;;;5.43;3.25;;;7.90;99.90;;;;;;5082708;28;20144;-76
2023/05/18 02:09:55;;;;;;;8.00;3.10;;;7.90;99.90;;;;;;5091047;28;20126;-76
2023/05/18 02:12:21;;;;;;;5.93;2.80;;;7.90;99.90;;;;;;5073636;28;20048;-76
2023/05/18 02:14:46;;;;;;;9.93;3.40;;;7.90;99.90;;;;;;5070968;28;20037;-76
2023/05/18 02:17:12;;;;;;;4.82;2.88;;;7.90;99.90;;;;;;5064471;28;20040;-76
2023/05/18 02:19:38;;;;;;;3.92;2.65;;;7.90;99.90;;;;;;5088914;28;20101;-76
2023/05/18 02:22:07;;;;;;;5.22;3.13;;;7.90;99.90;;;;;;5090327;28;20040;-76
2023/05/18 02:24:33;;;;;;;6.70;3.78;;;7.80;99.90;;;;;;5070471;28;20104;-76
2023/05/18 02:26:58;;;;;;;8.23;3.30;;;7.80;99.90;;;;;;5072144;28;20047;-76
2023/05/18 02:29:24;;;;;;;7.85;3.55;;;7.80;99.90;;;;;;5088518;28;20205;-76
2023/05/18 02:31:50;;;;;;;7.22;3.20;;;7.70;99.90;;;;;;5088273;28;20339;-76
2023/05/18 02:34:16;;;;;;;7.22;3.00;;;8.00;99.90;;;;;;5071886;28;20044;-76
2023/05/18 02:36:42;;;;;;;7.20;3.17;;;7.80;99.90;;;;;;5089275;28;20498;-76
2023/05/18 02:39:11;;;;;;;8.15;3.17;;;7.80;99.90;;;;;;5089004;28;20096;-76
2023/05/18 02:41:37;;;;;;;4.68;3.08;;;7.80;99.90;;;;;;5070430;28;20486;-76
2023/05/18 02:44:03;;;;;;;6.88;3.42;;;7.80;99.90;;;;;;5071200;28;20044;-76
2023/05/18 02:46:30;;;;;;;5.05;2.70;;;7.70;99.90;;;;;;5071327;28;20040;-76
2023/05/18 02:48:56;;;;;;;5.38;2.92;;;7.80;99.90;;;;;;5089755;28;20505;-76
2023/05/18 02:51:21;;;;;;;5.78;3.38;;;7.80;99.90;;;;;;5083747;28;20467;-76
2023/05/18 02:53:47;;;;;;;6.40;3.05;;;7.80;99.90;;;;;;5089082;28;20036;-76
2023/05/18 02:56:13;;;;;;;6.68;2.83;;;7.80;99.90;;;;;;5087318;28;20062;-76
2023/05/18 02:58:39;;;;;;;7.07;2.63;;;7.70;99.90;;;;;;5075347;28;20044;-76
2023/05/18 03:01:08;;;;;;;6.80;2.90;;;7.70;99.90;;;;;;5070490;28;20119;-76
2023/05/18 03:03:33;;;;;;;8.13;3.17;;;7.70;99.90;;;;;;5088259;28;20041;-76
2023/05/18 03:06:01;;;;;;;4.82;2.90;;;7.60;99.90;;;;;;5087484;28;20086;-76
2023/05/18 03:08:27;;;;;;;4.43;2.67;;;7.70;99.90;;;;;;5069872;28;20048;-76
2023/05/18 03:10:54;;;;;;;6.85;3.42;;;7.60;99.90;;;;;;5069743;28;20048;-76
2023/05/18 03:13:19;;;;;;;5.80;2.83;;;7.60;99.90;;;;;;5088380;28;20036;-76
2023/05/18 03:15:45;;;;;;;7.65;3.20;;;7.60;99.90;;;;;;5087268;28;20398;-76
2023/05/18 03:18:11;;;;;;;7.55;2.80;;;7.60;99.90;;;;;;5085199;28;20055;-76
2023/05/18 03:20:37;;;;;;;8.32;3.08;;;7.60;99.90;;;;;;5055302;28;20181;-76
2023/05/18 03:23:03;;;;;;;7.85;2.67;;;7.60;99.90;;;;;;5052756;28;20044;-76
2023/05/18 03:25:31;;;;;;;8.48;3.05;;;7.60;99.90;;;;;;5088116;28;20466;-76
2023/05/18 03:27:57;;;;;;;7.32;2.50;;;7.50;99.90;;;;;;5079960;28;20048;-76
2023/05/18 03:30:23;;;;;;;7.30;2.90;;;7.60;99.90;;;;;;5081554;28;20131;-76
2023/05/18 03:32:49;;;;;;;6.70;2.75;;;7.60;99.90;;;;;;5086909;28;20088;-76
2023/05/18 03:35:15;;;;;;;6.53;2.80;;;7.60;99.90;;;;;;5071271;28;20048;-76
2023/05/18 03:37:41;;;;;;;3.90;2.85;;;7.60;99.90;;;;;;5071298;28;20044;-76
2023/05/18 03:40:12;;;;;;;6.97;3.03;;;7.50;99.90;;;;;;5087028;28;20055;-76
2023/05/18 03:42:41;;;;;;;5.18;3.25;;;7.50;99.90;;;;;;5087583;28;20044;-76
2023/05/18 03:45:08;;;;;;;9.70;3.20;;;7.50;99.90;;;;;;5070726;28;20418;-76
2023/05/18 03:47:34;;;;;;;6.85;3.35;;;7.50;99.90;;;;;;5087980;28;20071;-76
2023/05/18 03:50:00;;;;;;;7.85;3.13;;;7.50;99.90;;;;;;5069051;28;20040;-76
2023/05/18 03:52:28;;;;;;;5.50;2.78;;;7.50;99.90;;;;;;5084572;28;20089;-76
2023/05/18 03:54:54;;;;;;;4.90;3.13;;;7.50;99.90;;;;;;5055260;28;20048;-76
2023/05/18 03:57:20;;;;;;;10.60;3.03;;;7.60;99.90;;;;;;5087012;28;20047;-76
2023/05/18 03:59:45;;;;;;;6.75;2.90;;;7.50;99.90;;;;;;5087725;28;20104;-76
2023/05/18 04:02:11;;;;;;;14.65;3.42;;;7.50;99.90;;;;;;5087296;28;20054;-76
2023/05/18 04:04:44;;;;;;;7.95;3.28;;;7.50;99.90;;;;;;5087870;28;20244;-76
2023/05/18 04:07:17;;;;;;;8.35;3.75;;;7.50;99.90;;;;;;5058339;28;20063;-76
2023/05/18 04:09:43;;;;;;;;;;;7.50;99.90;;;;;;5088261;28;20054;-76
2023/05/18 04:12:09;;;;;;;8.52;2.95;;;7.50;99.90;;;;;;5069300;28;19932;-76
2023/05/18 04:14:35;;;;;;;6.22;2.45;;;7.70;99.90;;;;;;5087976;28;20044;-76
2023/05/18 04:17:05;;;;;;;8.40;3.05;;;7.50;99.90;;;;;;5086677;28;20040;-76
2023/05/18 04:19:34;;;;;;;6.50;3.00;;;7.50;99.90;;;;;;5087183;28;20402;-76
2023/05/18 04:22:03;;;;;;;7.70;2.80;;;7.60;99.90;;;;;;5087354;28;20044;-76
2023/05/18 04:24:33;;;;;;;3.58;2.50;;;7.60;99.90;;;;;;5087215;28;20150;-76
2023/05/18 04:26:59;;;;;;;8.13;3.00;;;7.70;99.90;;;;;;5087575;28;20040;-76
2023/05/18 04:29:27;;;;;;;8.32;2.97;;;7.70;99.90;;;;;;5086725;28;20059;-76
2023/05/18 04:31:59;;;;;;;5.20;2.70;;;7.70;99.90;;;;;;5088637;28;20044;-76
2023/05/18 04:34:30;;;;;;;6.15;3.13;;;7.70;99.90;;;;;;5086928;28;20050;-76
2023/05/18 04:36:57;;;;;;;6.18;2.78;;;7.80;99.90;;;;;;5086729;28;20100;-76
2023/05/18 04:39:24;;;;;;;5.05;2.60;;;7.80;99.90;;;;;;5067786;28;20138;-76
2023/05/18 04:41:56;;;;;;;6.32;3.47;;;7.90;99.90;;;;;;5086217;28;20040;-76
2023/05/18 04:44:29;;;;;;;3.85;2.30;;;7.90;99.90;;;;;;5088185;28;20052;-76
2023/05/18 04:46:55;;;;;;;7.05;2.55;;;8.00;99.90;;;;;;5086798;28;20066;-76
2023/05/18 04:49:21;;;;;;;6.88;2.95;;;8.00;99.90;;;;;;5049819;28;20057;-76
2023/05/18 04:51:54;;;;;;;7.97;2.95;;;8.10;99.90;;;;;;5086132;28;20065;-76
2023/05/18 04:54:24;;;;;;;7.70;2.85;;;8.20;99.90;;;;;;5079318;28;20071;-76
2023/05/18 04:56:50;;;;;;;6.97;2.35;;;8.20;99.90;;;;;;5088376;28;20047;-76
2023/05/18 04:59:16;;;;;;;4.45;2.13;;;8.30;99.90;;;;;;5087231;28;20112;-76
2023/05/18 05:01:43;;;;;;;6.00;2.22;;;8.30;99.90;;;;;;5085101;28;20044;-76
2023/05/18 05:04:08;;;;;;;5.50;2.60;;;8.40;99.90;;;;;;5086937;28;20535;-76
2023/05/18 05:06:34;;;;;;;9.60;3.00;;;8.50;99.90;;;;;;5086765;28;20040;-76
2023/05/18 05:09:00;;;;;;;7.70;2.40;;;8.50;99.90;;;;;;5085851;28;20497;-76
2023/05/18 05:11:25;;;;;;;7.45;2.50;;;8.60;99.90;;;;;;5086823;28;20127;-76
2023/05/18 05:13:51;;;;;;;3.65;2.42;;;8.60;99.90;;;;;;5050127;28;20032;-76
2023/05/18 05:16:17;;;;;;;5.50;2.63;;;8.60;99.90;;;;;;5085752;28;20388;-76
2023/05/18 05:18:43;;;;;;;7.88;2.65;;;8.70;99.90;;;;;;5083633;28;20032;-76
2023/05/18 05:21:08;;;;;;;5.95;3.20;;;8.70;99.90;;;;;;5068871;28;20051;-76
2023/05/18 05:23:34;;;;;;;5.30;2.20;;;8.80;99.90;;;;;;5050586;28;20040;-76
2023/05/18 05:26:00;;;;;;;5.70;2.40;;;8.80;99.90;;;;;;5087335;28;20086;-76
2023/05/18 05:28:25;;;;;;;4.82;2.13;;;8.90;99.90;;;;;;5085451;28;20444;-76
2023/05/18 05:30:51;;;;;;;4.78;2.28;;;8.90;99.90;;;;;;5086337;28;20056;-76
2023/05/18 05:33:17;;;;;;;8.30;3.08;;;9.00;99.90;;;;;;5086905;28;20059;-76
2023/05/18 05:35:43;;;;;;;9.20;2.70;;;9.00;99.90;;;;;;5069402;28;20048;-76
2023/05/18 05:38:09;;;;;;;6.60;2.35;;;9.00;99.90;;;;;;5083714;28;20047;-76
2023/05/18 05:40:34;;;;;;;4.63;1.90;;;9.10;99.90;;;;;;5084404;28;20055;-76
2023/05/18 05:43:00;;;;;;;8.02;2.30;;;9.10;99.90;;;;;;5086701;28;20517;-76
2023/05/18 05:45:29;;;;;;;5.18;2.22;;;9.20;99.90;;;;;;5085047;28;20055;-76
2023/05/18 05:47:55;;;;;;;7.03;2.15;;;9.20;99.90;;;;;;5048188;28;20139;-76
2023/05/18 05:50:21;;;;;;;5.30;2.08;;;9.20;99.90;;;;;;5071238;28;20051;-76
2023/05/18 05:52:46;;;;;;;6.53;1.90;;;9.20;99.90;;;;;;5072056;28;20041;-76
2023/05/18 05:55:12;;;;;;;6.75;2.15;;;9.30;99.90;;;;;;5051925;28;20115;-76
2023/05/18 05:57:41;;;;;;;5.03;2.42;;;9.40;99.90;;;;;;5064797;28;20379;-76
2023/05/18 06:00:09;;;;;;;5.13;1.85;;;9.50;99.90;;;;;;5068117;28;20066;-77
2023/05/18 06:02:35;;;;;;;8.65;2.03;;;9.50;99.50;;;;;;5069057;28;20060;-76
2023/05/18 06:05:00;;;;;;;4.75;1.85;;;9.60;99.00;;;;;;5075085;28;20044;-76
2023/05/18 06:07:26;;;;;;;8.60;2.25;;;9.60;97.90;;;;;;5070426;28;20151;-76
2023/05/18 06:09:51;;;;;;;4.68;1.95;;;9.60;97.80;;;;;;5069352;28;20118;-76
2023/05/18 06:12:17;;;;;;;9.70;1.88;;;9.60;97.80;;;;;;5070618;28;20076;-76
2023/05/18 06:14:42;;;;;;;5.35;1.88;;;9.70;97.40;;;;;;5071402;28;20052;-75
2023/05/18 06:17:08;;;;;;;6.47;1.70;;;9.70;97.00;;;;;;5070292;28;20036;-76
2023/05/18 06:19:34;;;;;;;6.35;2.13;;;9.80;96.90;;;;;;5070091;28;20124;-76
2023/05/18 06:21:59;;;;;;;3.08;1.75;;;9.90;96.40;;;;;;5070170;28;20154;-76
2023/05/18 06:24:25;;;;;;;4.57;1.77;;;10.00;95.70;;;;;;5069696;28;20033;-76
2023/05/18 06:26:51;;;;;;;5.60;1.90;;;10.00;95.50;;;;;;5068235;28;20094;-76
2023/05/18 06:29:17;;;;;;;6.18;2.25;;;10.10;94.70;;;;;;5069949;28;20048;-76
2023/05/18 06:31:43;;;;;;;4.32;1.48;;;10.10;94.70;;;;;;5068761;28;20056;-76
2023/05/18 06:34:08;;;;;;;5.15;1.80;;;10.20;94.20;;;;;;5071040;28;20056;-77
2023/05/18 06:36:34;;;;;;;5.25;2.05;;;10.30;93.90;;;;;;5068771;28;20461;-77
2023/05/18 06:38:59;;;;;;;4.95;1.88;;;10.50;93.90;;;;;;5068803;28;20051;-77
2023/05/18 06:41:25;;;;;;;9.57;2.22;;;10.60;93.40;;;;;;5069653;28;20101;-77
2023/05/18 06:43:51;;;;;;;4.60;2.53;;;10.90;93.10;;;;;;5068501;28;20053;-76
2023/05/18 06:46:21;;;;;;;4.70;1.58;;;11.10;92.80;;;;;;5068095;28;20132;-76
2023/05/18 06:48:47;;;;;;;4.95;1.73;;;11.30;92.10;;;;;;5071485;28;20044;-76
2023/05/18 06:51:15;;;;;;;5.55;1.75;;;11.20;91.30;;;;;;5089600;28;20135;-77
2023/05/18 06:53:41;;;;;;;4.15;1.77;;;11.30;90.90;;;;;;5088001;28;20054;-76
2023/05/18 06:56:06;;;;;;;5.05;1.73;;;11.40;90.40;;;;;;5072262;28;20056;-76
2023/05/18 06:58:32;;;;;;;4.00;1.70;;;11.40;90.00;;;;;;5068172;28;20048;-76
2023/05/18 07:00:57;;;;;;;3.72;1.90;;;11.40;89.30;;;;;;5055092;28;20091;-76
2023/05/18 07:03:23;;;;;;;6.40;1.98;;;11.30;88.10;;;;;;5055055;28;20048;-76
2023/05/18 07:05:49;;;;;;;5.80;2.20;;;11.40;87.20;;;;;;5089449;28;20467;-76
2023/05/18 07:08:14;;;;;;;6.38;2.30;;;11.50;86.90;;;;;;5089517;28;20051;-76
2023/05/18 07:10:40;;;;;;;3.60;1.52;;;11.60;86.60;;;;;;5089365;28;20127;-76
2023/05/18 07:13:05;;;;;;;6.07;1.90;;;11.80;85.40;;;;;;5089161;28;20117;-76
2023/05/18 07:15:31;;;;;;;5.13;1.85;;;11.80;84.00;;;;;;5071119;28;20054;-76
2023/05/18 07:17:56;;;;;;;6.13;1.80;;;11.90;82.90;;;;;;5070547;28;20128;-76
2023/05/18 07:20:22;;;;;;;2.55;1.90;;;12.00;82.80;;;;;;5070927;28;20044;-76
2023/05/18 07:22:49;;;;;;;6.65;2.10;;;;;;;;;;5068326;28;20671;-76
2023/05/18 07:25:15;;;;;;;2.47;1.38;;;11.70;80.30;;;;;;5089130;28;20059;-76
2023/05/18 07:27:40;;;;;;;3.13;1.50;;;11.70;80.10;;;;;;5089586;28;20052;-77
2023/05/18 07:30:07;;;;;;;5.50;1.95;;;11.70;80.30;;;;;;5088332;28;20056;-76
2023/05/18 07:32:33;;;;;;;4.63;1.73;;;11.80;79.90;;;;;;5069176;28;20048;-76
2023/05/18 07:34:58;;;;;;;4.70;1.83;;;11.70;77.80;;;;;;5089201;28;20100;-76
2023/05/18 07:37:24;;;;;;;3.70;1.55;;;11.70;78.00;;;;;;5071034;28;20054;-76
2023/05/18 07:39:51;;;;;;;4.75;1.85;;;11.80;78.50;;;;;;5053064;28;20044;-75
2023/05/18 07:42:17;;;;;;;10.02;1.65;;;11.80;78.20;;;;;;5088320;28;20409;-76
2023/05/18 07:44:42;;;;;;;4.93;2.13;;;11.60;77.00;;;;;;5089158;28;20052;-75
2023/05/18 07:47:08;;;;;;;3.75;1.67;;;11.50;76.70;;;;;;5074754;28;20051;-75
2023/05/18 07:49:33;;;;;;;2.95;1.70;;;11.70;77.40;;;;;;5074228;28;20050;-78
2023/05/18 07:52:01;;;;;;;5.13;1.85;;;11.90;77.10;;;;;;5072584;28;20039;-76
2023/05/18 07:54:26;;;;;;;3.25;1.77;;;12.10;76.30;;;;;;5109392;28;20050;-77
2023/05/18 07:56:52;;;;;;;5.90;2.00;;;12.30;75.80;;;;;;5071516;28;20044;-76
2023/05/18 07:59:19;;;;;;;9.68;1.88;;;12.20;74.70;;;;;;5088334;28;20044;-76
2023/05/18 08:01:44;;;;;;;3.03;1.65;;;12.40;74.80;;;;;;5052827;28;20126;-78
2023/05/18 08:04:10;;;;;;;7.90;2.22;;;12.50;74.50;;;;;;5069969;28;20040;-76
2023/05/18 08:06:36;;;;;;;2.85;1.98;;;12.60;74.00;;;;;;5070406;28;20044;-76
2023/05/18 08:09:02;;;;;;;4.20;1.77;;;12.70;73.90;;;;;;5051556;28;20100;-76
2023/05/18 08:11:27;;;;;;;4.35;2.05;;;12.50;72.80;;;;;;5051574;28;20043;-76
2023/05/18 08:13:53;;;;;;;5.40;1.90;;;12.50;73.50;;;;;;5086403;28;20051;-76
2023/05/18 08:16:18;;;;;;;5.65;1.42;;;12.70;70.70;;;;;;5087281;28;20387;-76
2023/05/18 08:18:44;;;;;;;3.72;1.48;;;12.60;72.20;;;;;;5067238;28;20155;-77
2023/05/18 08:21:10;;;;;;;2.55;1.75;;;12.80;72.20;;;;;;5069082;28;20052;-75
2023/05/18 08:23:38;;;;;;;7.78;1.88;;;13.20;72.30;;;;;;5067484;28;20144;-78
2023/05/18 08:26:04;;;;;;;8.55;2.30;;;13.20;72.50;;;;;;5075473;28;20059;-78
2023/05/18 08:28:30;;;;;;;3.90;1.67;;;13.20;71.20;;;;;;5038286;28;20398;-77
2023/05/18 08:30:56;;;;;;;2.78;1.70;;;13.00;70.70;;;;;;5088882;28;20500;-77
2023/05/18 08:33:25;;;;;;;5.85;1.98;;;13.10;71.70;;;;;;5083163;28;20036;-78
2023/05/18 08:35:50;;;;;;;5.82;1.92;;;13.30;72.40;;;;;;5097747;28;20040;-78
2023/05/18 08:38:16;;;;;;;4.03;2.05;;;13.50;71.40;;;;;;5108340;28;20050;-78
2023/05/18 08:40:52;;;;;;;4.28;2.15;;;13.40;70.10;;;;;;5073246;28;20451;-78
2023/05/18 08:43:26;;;;;;;5.80;1.85;;;13.40;69.30;;;;;;5063804;28;20509;-77
2023/05/18 08:46:04;;;;;;;6.20;1.85;;;13.40;69.30;;;;;;5058914;28;20044;-78
2023/05/18 08:48:32;;;;;;;3.95;1.70;;;13.50;67.50;;;;;;5069553;28;20052;-78
2023/05/18 08:51:00;;;;;;;4.95;1.90;;;13.50;69.10;;;;;;5087251;28;20055;-77
2023/05/18 08:53:26;;;;;;;5.07;1.60;;;13.70;69.10;;;;;;5069485;28;20047;-78
2023/05/18 08:55:53;;;;;;;5.43;1.60;;;13.80;68.30;;;;;;5070453;28;20388;-77
2023/05/18 08:58:22;;;;;;;5.07;1.70;;;13.70;67.80;;;;;;5086080;28;20044;-77
2023/05/18 09:00:52;;;;;;;7.32;2.00;;;13.70;67.50;;;;;;5087684;28;20401;-77
2023/05/18 09:03:20;;;;;;;7.70;1.90;;;13.60;68.20;;;;;;5087961;28;20048;-77
2023/05/18 09:05:47;;;;;;;4.30;1.88;;;13.60;68.30;;;;;;5088512;28;20136;-77
2023/05/18 09:08:14;;;;;;;3.78;1.98;;;13.60;68.30;;;;;;5087179;28;20055;-77
2023/05/18 09:10:40;;;;;;;4.82;1.75;;;13.60;68.00;;;;;;5070121;28;20055;-77
2023/05/18 09:13:11;;;;;;;3.50;1.60;;;13.60;67.20;;;;;;5053084;28;20499;-78
2023/05/18 09:15:37;;;;;;;5.10;1.65;;;13.70;68.00;;;;;;5086882;28;20044;-79
2023/05/18 09:18:15;;;;;;;;;;;;;;;;;;;;;
2023/05/18 09:20:44;;;;;;;5.30;2.20;;;13.90;67.20;;;;;;5087926;28;20059;-76
2023/05/18 09:23:14;;;;;;;4.15;1.88;;;14.00;67.00;;;;;;5071988;28;20123;-78
2023/05/18 09:25:48;;;;;;;3.63;1.77;;;14.00;65.90;;;;;;5091508;28;20055;-78
2023/05/18 09:28:46;;;;;;;4.18;2.03;;;14.20;65.80;;;;;;5073416;28;20501;-77
2023/05/18 09:31:23;;;;;;;5.57;2.03;;;14.40;65.90;;;;;;5091742;28;20538;-77
2023/05/18 09:33:50;;;;;;;3.78;1.98;;;14.40;65.10;;;;;;5074108;28;20040;-77
2023/05/18 09:36:16;;;;;;;4.13;1.67;;;14.60;65.10;;;;;;5073716;28;20414;-77
2023/05/18 09:38:46;;;;;;;6.88;2.28;;;14.70;65.90;;;;;;5071671;28;20064;-76
2023/05/18 09:41:15;;;;;;;6.70;2.30;;;14.70;65.10;;;;;;5090143;28;20043;-77
2023/05/18 09:43:46;;;;;;;4.28;1.83;;;14.90;64.30;;;;;;5090910;28;20051;-77
2023/05/18 09:46:16;;;;;;;5.80;2.15;;;15.10;64.40;;;;;;5090944;28;20084;-77
2023/05/18 09:48:58;;;;;;;3.30;1.70;;;15.10;63.60;;;;;;5070483;28;20053;-77
2023/05/18 09:51:28;;;;;;;3.30;1.60;;;15.10;62.70;;;;;;5070491;28;20075;-78
2023/05/18 09:54:03;;;;;;;6.38;2.45;;;14.90;63.20;;;;;;5052447;28;20052;-78
2023/05/18 09:56:30;;;;;;;5.95;2.03;;;15.10;63.40;;;;;;5071056;28;20048;-78
2023/05/18 09:58:56;;;;;;;5.90;1.67;;;15.00;62.80;;;;;;5068885;28;20040;-77
2023/05/18 10:01:22;;;;;;;5.07;2.20;;;15.10;62.70;;;;;;5074325;28;20083;-80
2023/05/18 10:03:48;;;;;;;4.20;1.80;;;15.30;62.60;;;;;;5089976;28;20086;-78
2023/05/18 10:06:18;;;;;;;6.10;2.08;;;15.30;62.00;;;;;;5090886;28;20048;-77
2023/05/18 10:08:44;;;;;;;5.60;2.05;;;15.40;62.30;;;;;;5090887;28;20044;-77
2023/05/18 10:11:10;;;;;;;4.32;2.08;;;15.50;62.60;;;;;;5072669;28;20059;-77
2023/05/18 10:13:36;;;;;;;3.50;2.00;;;15.40;61.40;;;;;;5088845;28;20076;-78
2023/05/18 10:16:06;;;;;;;3.70;2.03;;;15.30;62.30;;;;;;5093830;28;20374;-78
2023/05/18 10:18:35;;;;;;;4.55;1.95;;;15.20;61.60;;;;;;5067993;28;20050;-78
2023/05/18 10:21:03;;;;;;;4.45;2.70;;;15.10;60.80;;;;;;5090172;28;20051;-78
2023/05/18 10:23:34;;;;;;;4.05;1.95;;;15.00;61.60;;;;;;5068199;28;20126;-78
2023/05/18 10:26:03;;;;;;;4.53;1.92;;;15.00;61.40;;;;;;5099763;28;20041;-78
2023/05/18 10:28:46;;;;;;;3.20;1.90;;;15.10;62.10;;;;;;5088266;28;20093;-76
2023/05/18 10:31:14;;;;;;;4.90;2.22;;;15.30;62.10;;;;;;5085975;28;20066;-78
2023/05/18 10:33:40;;;;;;;4.15;2.10;;;15.40;62.00;;;;;;5089893;28;20050;-78
2023/05/18 10:36:07;;;;;;;3.67;2.40;;;15.50;61.70;;;;;;5090734;28;20226;-78
2023/05/18 10:38:41;;;;;;;6.85;2.00;;;15.50;61.40;;;;;;5088718;28;20036;-79
2023/05/18 10:41:08;;;;;;;4.38;1.90;;;15.40;61.10;;;;;;5068395;28;20487;-78
2023/05/18 10:43:35;;;;;;;4.75;1.75;;;15.40;61.10;;;;;;5083730;28;20127;-79
2023/05/18 10:46:01;;;;;;;4.53;1.90;;;15.60;61.10;;;;;;5071746;28;20044;-78
2023/05/18 10:48:28;;;;;;;5.22;2.25;;;15.60;60.30;;;;;;5089900;28;20067;-78
2023/05/18 10:50:55;;;;;;;5.07;2.15;;;15.60;60.20;;;;;;5089004;28;20509;-79
2023/05/18 10:53:26;;;;;;;5.47;1.80;;;15.60;60.60;;;;;;5071535;28;20094;-78
2023/05/18 10:55:52;;;;;;;3.50;2.30;;;15.60;60.40;;;;;;5090251;28;20320;-77
2023/05/18 10:58:24;;;;;;;6.75;2.38;;;15.60;60.50;;;;;;5088500;28;20036;-78
2023/05/18 11:00:55;;;;;;;3.40;2.03;;;15.70;60.20;;;;;;5089817;28;20089;-78
2023/05/18 11:03:21;;;;;;;4.65;2.40;;;15.90;60.50;;;;;;5090384;28;20050;-78
2023/05/18 11:06:13;;;;;;;5.38;2.10;;;15.90;59.90;;;;;;5090488;28;20036;-78
2023/05/18 11:08:46;;;;;;;4.45;2.58;;;15.90;59.40;;;;;;5088574;28;20052;-78
2023/05/18 11:11:11;;;;;;;4.90;1.92;;;15.50;58.80;;;;;;5069333;28;20044;-77
2023/05/18 11:13:46;;;;;;;4.63;1.88;;;15.60;60.00;;;;;;5053444;28;20355;-78
2023/05/18 11:16:11;;;;;;;5.65;2.30;;;15.80;59.80;;;;;;5054710;28;20052;-78
2023/05/18 11:18:38;;;;;;;5.40;2.40;;;15.80;59.60;;;;;;5070558;28;20055;-79
2023/05/18 11:21:22;;;;;;;4.28;1.83;;;15.70;59.50;;;;;;5089718;28;20040;-77
2023/05/18 11:24:17;;;;;;;5.40;2.45;;;15.60;59.40;;;;;;5088141;28;20044;-78
2023/05/18 11:26:45;;;;;;;6.80;2.17;;;15.80;59.30;;;;;;5054530;28;20044;-78
2023/05/18 11:29:34;;;;;;;4.63;2.20;;;16.00;59.10;;;;;;5054162;28;20048;-78
2023/05/18 11:32:00;;;;;;;5.80;2.60;;;16.10;58.60;;;;;;5089192;28;20048;-78
2023/05/18 11:34:38;;;;;;;7.60;2.50;;;15.80;58.70;;;;;;5088681;28;20070;-78
2023/05/18 11:37:05;;;;;;;5.93;2.60;;;15.60;58.10;;;;;;5087611;28;20051;-78
2023/05/18 11:39:32;;;;;;;3.58;2.08;;;15.60;59.50;;;;;;5088130;28;20159;-77
2023/05/18 11:42:04;;;;;;;4.30;2.00;;;15.80;60.30;;;;;;5089593;28;20036;-78
2023/05/18 11:44:31;;;;;;;5.55;2.67;;;15.80;59.30;;;;;;5087219;28;20059;-77
2023/05/18 11:47:03;;;;;;;4.90;2.50;;;15.50;59.00;;;;;;5054652;28;20048;-78
2023/05/18 11:49:37;;;;;;;8.60;2.67;;;15.40;58.70;;;;;;5088603;28;20463;-79
2023/05/18 11:52:18;;;;;;;6.07;2.72;;;15.50;58.70;;;;;;5089058;28;20047;-79
2023/05/18 11:54:55;;;;;;;3.97;2.63;;;15.60;59.60;;;;;;5088666;28;20083;-79
2023/05/18 11:57:26;;;;;;;3.85;2.30;;;15.60;58.60;;;;;;5053212;28;20070;-78
2023/05/18 11:59:56;;;;;;;6.65;2.40;;;15.70;58.80;;;;;;5054076;28;20048;-77
2023/05/18 12:02:31;;;;;;;5.25;2.22;;;15.90;59.60;;;;;;5088303;28;20097;-77
2023/05/18 12:05:01;;;;;;;6.10;2.10;;;16.10;59.20;;;;;;5089106;28;20052;-80
2023/05/18 12:07:34;;;;;;;5.75;2.75;;;15.80;58.90;;;;;;5070723;28;20067;-81
2023/05/18 12:10:00;;;;;;;5.70;2.88;;;15.90;59.70;;;;;;5069127;28;20048;-81
2023/05/18 12:12:27;;;;;;;5.10;2.55;;;15.90;60.30;;;;;;5070936;28;20036;-81
2023/05/18 12:15:04;;;;;;;3.85;2.67;;;15.70;59.60;;;;;;5068105;28;20048;-80
2023/05/18 12:17:42;;;;;;;4.85;2.38;;;15.80;59.80;;;;;;5068136;28;20056;-79
2023/05/18 12:20:10;;;;;;;4.80;2.35;;;16.00;59.70;;;;;;5067874;28;20371;-80
2023/05/18 12:22:40;;;;;;;5.97;2.83;;;16.00;59.30;;;;;;5068184;28;20051;-80
2023/05/18 12:25:06;;;;;;;5.70;2.70;;;16.00;59.10;;;;;;5083797;28;20055;-80
2023/05/18 12:27:40;;;;;;;8.57;2.58;;;16.00;59.70;;;;;;5088109;28;20048;-82
2023/05/18 12:30:20;;;;;;;4.43;2.20;;;16.10;59.70;;;;;;5063600;28;20044;-81
2023/05/18 12:32:49;;;;;;;5.03;2.75;;;16.20;58.80;;;;;;5087926;28;20063;-81
2023/05/18 12:35:15;;;;;;;6.60;2.53;;;16.30;59.30;;;;;;5087922;28;20043;-81
2023/05/18 12:37:45;;;;;;;7.70;2.63;;;16.40;59.40;;;;;;5088228;28;20043;-80
2023/05/18 12:40:15;;;;;;;5.45;2.17;;;16.50;59.00;;;;;;5053592;28;20055;-80
2023/05/18 12:42:59;;;;;;;6.90;2.72;;;16.60;58.50;;;;;;5088445;28;20101;-80
2023/05/18 12:45:27;;;;;;;4.65;2.85;;;16.50;57.10;;;;;;5070602;28;20048;-81
2023/05/18 12:47:53;;;;;;;5.57;2.47;;;16.40;58.70;;;;;;5049666;28;20055;-80
2023/05/18 12:50:21;;;;;;;3.97;2.38;;;16.40;58.70;;;;;;5050423;28;20131;-80
2023/05/18 12:52:50;;;;;;;3.83;2.40;;;16.50;58.60;;;;;;5066288;28;20047;-80
2023/05/18 12:55:29;;;;;;;6.05;2.30;;;16.80;59.00;;;;;;5068272;28;20051;-80
2023/05/18 12:58:16;;;;;;;3.47;2.28;;;16.90;58.20;;;;;;5067483;28;20040;-80
2023/05/18 13:00:46;;;;;;;4.97;2.60;;;16.90;56.30;;;;;;5067871;28;20407;-80